createdAt,value
2022-11-26T00:01:02.235Z,96.55
2022-11-26T00:03:31.726Z,92.78
2022-11-26T00:05:58.632Z,79.57
2022-11-26T00:08:33.833Z,84.10
2022-11-26T00:11:02.567Z,94.80
2022-11-26T00:13:31.306Z,68.63
2022-11-26T00:15:58.287Z,83.22
2022-11-26T00:18:26.827Z,88.95
2022-11-26T00:20:56.681Z,83.53
2022-11-26T00:23:25.838Z,77.95
2022-11-26T00:26:01.372Z,55.47
2022-11-26T00:28:34.728Z,78.32
2022-11-26T00:31:04.750Z,65.45
2022-11-26T00:33:32.819Z,76.80
2022-11-26T00:36:04.096Z,86.35
2022-11-26T00:38:31.859Z,76.72
2022-11-26T00:40:59.392Z,71.65
2022-11-26T00:43:26.597Z,75.63
2022-11-26T00:45:53.544Z,73.57
2022-11-26T00:48:20.765Z,68.93
2022-11-26T00:50:50.706Z,89.82
2022-11-26T00:53:22.135Z,80.50
2022-11-26T00:55:50.527Z,78.18
2022-11-26T00:58:30.965Z,72.78
2022-11-26T01:00:59.519Z,82.18
2022-11-26T01:03:26.946Z,81.03
2022-11-26T01:05:56.403Z,76.72
2022-11-26T01:08:30.884Z,87.30
2022-11-26T01:10:59.430Z,82.97
2022-11-26T01:13:27.500Z,77.10
2022-11-26T01:15:56.093Z,74.82
2022-11-26T01:18:24.103Z,89.85
2022-11-26T01:20:51.580Z,67.72
2022-11-26T01:23:20.269Z,86.60
2022-11-26T01:25:47.980Z,78.07
2022-11-26T01:28:17.913Z,84.00
2022-11-26T01:30:45.699Z,71.90
2022-11-26T01:33:12.891Z,82.10
2022-11-26T01:35:39.775Z,80.93
2022-11-26T01:38:07.034Z,101.82
2022-11-26T01:41:03.237Z,71.85
2022-11-26T01:43:39.279Z,83.07
2022-11-26T01:46:16.307Z,71.93
2022-11-26T01:48:44.889Z,74.05
2022-11-26T01:51:13.695Z,92.10
2022-11-26T01:53:54.845Z,102.60
2022-11-26T01:56:32.811Z,93.65
2022-11-26T01:59:21.905Z,96.53
2022-11-26T02:01:51.396Z,88.43
2022-11-26T02:04:38.666Z,85.53
2022-11-26T02:07:05.959Z,95.70
2022-11-26T02:09:33.594Z,69.63
2022-11-26T02:12:00.708Z,91.70
2022-11-26T02:14:41.325Z,79.55
2022-11-26T02:17:30.688Z,105.75
2022-11-26T02:20:22.409Z,100.55
2022-11-26T02:22:49.320Z,98.25
2022-11-26T02:25:44.154Z,94.18
2022-11-26T02:28:29.670Z,91.07
2022-11-26T02:31:13.140Z,94.25
2022-11-26T02:33:58.135Z,102.90
2022-11-26T02:36:32.237Z,83.07
2022-11-26T02:39:12.367Z,93.28
2022-11-26T02:41:48.083Z,93.63
2022-11-26T02:44:17.488Z,100.30
2022-11-26T02:46:47.402Z,99.10
2022-11-26T02:49:18.738Z,85.97
2022-11-26T02:51:52.144Z,129.45
2022-11-26T02:56:49.172Z,112.85
2022-11-26T02:59:16.356Z,100.80
2022-11-26T03:01:59.026Z,156.63
2022-11-26T03:04:32.229Z,126.57
2022-11-26T03:07:04.505Z,157.38
2022-11-26T03:09:55.365Z,163.63
2022-11-26T03:12:22.878Z,119.57
2022-11-26T03:14:49.985Z,126.72
2022-11-26T03:17:18.279Z,98.75
2022-11-26T03:19:45.747Z,142.20
2022-11-26T03:22:14.055Z,98.18
2022-11-26T03:24:41.177Z,106.65
2022-11-26T03:27:08.672Z,119.38
2022-11-26T03:29:35.573Z,104.35
2022-11-26T03:32:02.769Z,120.13
2022-11-26T03:34:29.783Z,102.18
2022-11-26T03:36:57.252Z,100.97
2022-11-26T03:39:24.194Z,96.35
2022-11-26T03:41:51.357Z,74.05
2022-11-26T03:44:18.209Z,105.72
2022-11-26T03:46:45.381Z,96.80
2022-11-26T03:49:12.349Z,111.38
2022-11-26T03:51:39.523Z,92.05
2022-11-26T03:54:06.389Z,80.28
2022-11-26T03:56:33.585Z,83.75
2022-11-26T03:59:00.522Z,84.82
2022-11-26T04:01:27.844Z,83.05
2022-11-26T04:03:54.783Z,84.55
2022-11-26T04:06:21.944Z,78.93
2022-11-26T04:08:48.913Z,78.10
2022-11-26T04:11:16.917Z,90.88
2022-11-26T04:13:43.825Z,80.55
2022-11-26T04:16:11.059Z,90.30
2022-11-26T04:18:38.109Z,77.28
2022-11-26T04:21:08.785Z,94.35
2022-11-26T04:23:36.088Z,78.28
2022-11-26T04:26:03.286Z,66.07
2022-11-26T04:28:30.172Z,77.60
2022-11-26T04:30:57.578Z,77.43
2022-11-26T04:33:27.046Z,74.28
2022-11-26T04:35:54.725Z,101.72
2022-11-26T04:38:25.703Z,86.63
2022-11-26T04:40:53.741Z,103.60
2022-11-26T04:43:20.601Z,80.00
2022-11-26T04:45:47.803Z,81.72
2022-11-26T04:48:14.744Z,79.07
2022-11-26T04:50:41.887Z,71.68
2022-11-26T04:53:08.898Z,75.03
2022-11-26T04:55:36.585Z,71.13
2022-11-26T04:58:03.551Z,64.47
2022-11-26T05:00:30.734Z,66.57
2022-11-26T05:02:57.705Z,62.63
2022-11-26T05:05:24.900Z,72.50
2022-11-26T05:07:51.784Z,73.47
2022-11-26T05:10:19.120Z,66.13
2022-11-26T05:12:46.129Z,55.33
2022-11-26T05:15:13.301Z,64.05
2022-11-26T05:17:40.215Z,72.75
2022-11-26T05:20:08.106Z,54.00
2022-11-26T05:22:35.027Z,67.78
2022-11-26T05:25:02.238Z,77.07
2022-11-26T05:27:29.111Z,64.50
2022-11-26T05:29:56.282Z,80.63
2022-11-26T05:32:23.282Z,75.63
2022-11-26T05:34:53.382Z,73.63
2022-11-26T05:37:22.509Z,75.55
2022-11-26T05:39:49.675Z,76.95
2022-11-26T05:42:16.807Z,66.85
2022-11-26T05:44:44.269Z,52.15
2022-11-26T05:47:11.254Z,58.20
2022-11-26T05:49:38.696Z,62.97
2022-11-26T05:52:05.631Z,59.33
2022-11-26T05:54:32.837Z,57.80
2022-11-26T05:57:00.423Z,50.10
2022-11-26T05:59:28.314Z,57.55
2022-11-26T06:01:55.303Z,52.58
2022-11-26T06:04:23.096Z,57.22
2022-11-26T06:06:50.143Z,58.40
2022-11-26T06:09:17.520Z,65.72
2022-11-26T06:11:44.431Z,64.20
2022-11-26T06:14:11.643Z,71.05
2022-11-26T06:16:38.527Z,57.03
2022-11-26T06:19:05.856Z,59.90
2022-11-26T06:21:32.856Z,72.88
2022-11-26T06:24:00.086Z,88.50
2022-11-26T06:26:27.165Z,82.68
2022-11-26T06:28:54.648Z,72.63
2022-11-26T06:31:21.726Z,108.90
2022-11-26T06:33:54.091Z,94.35
2022-11-26T06:36:21.380Z,88.20
2022-11-26T06:38:48.643Z,86.82
2022-11-26T06:41:15.790Z,77.63
2022-11-26T06:43:42.926Z,90.68
2022-11-26T06:46:10.969Z,87.20
2022-11-26T06:48:38.933Z,76.38
2022-11-26T06:51:08.831Z,101.40
2022-11-26T06:53:36.366Z,88.68
2022-11-26T06:56:05.091Z,100.95
2022-11-26T06:58:32.509Z,111.65
2022-11-26T07:00:59.540Z,82.13
2022-11-26T07:03:31.927Z,88.75
2022-11-26T07:06:00.271Z,83.13
2022-11-26T07:08:27.761Z,88.80
2022-11-26T07:10:54.790Z,73.30
2022-11-26T07:13:22.312Z,77.07
2022-11-26T07:15:49.301Z,89.22
2022-11-26T07:18:16.458Z,89.03
2022-11-26T07:20:43.500Z,94.85
2022-11-26T07:23:10.767Z,83.90
2022-11-26T07:25:37.638Z,73.00
2022-11-26T07:28:04.896Z,97.55
2022-11-26T07:30:31.785Z,75.95
2022-11-26T07:32:58.983Z,73.82
2022-11-26T07:35:25.987Z,62.25
2022-11-26T07:37:53.694Z,66.70
2022-11-26T07:40:20.925Z,63.92
2022-11-26T07:42:53.074Z,68.38
2022-11-26T07:45:20.322Z,64.25
2022-11-26T07:47:47.554Z,58.97
2022-11-26T07:50:15.187Z,72.60
2022-11-26T07:52:42.343Z,69.25
2022-11-26T07:55:12.488Z,63.22
2022-11-26T07:57:40.105Z,57.72
2022-11-26T08:00:07.594Z,58.85
2022-11-26T08:02:34.836Z,66.03
2022-11-26T08:05:01.771Z,79.93
2022-11-26T08:07:29.686Z,68.85
2022-11-26T08:09:57.131Z,77.20
2022-11-26T08:12:24.676Z,74.55
2022-11-26T08:14:51.555Z,74.07
2022-11-26T08:17:18.712Z,84.25
2022-11-26T08:19:45.603Z,87.63
2022-11-26T08:22:12.925Z,82.25
2022-11-26T08:24:40.288Z,70.82
2022-11-26T08:27:07.761Z,75.75
2022-11-26T08:29:36.961Z,75.95
2022-11-26T08:32:04.540Z,84.75
2022-11-26T08:34:31.613Z,70.95
2022-11-26T08:36:58.781Z,71.05
2022-11-26T08:39:25.709Z,75.72
2022-11-26T08:41:53.265Z,67.75
2022-11-26T08:44:21.250Z,71.13
2022-11-26T08:46:48.926Z,68.28
2022-11-26T08:49:17.115Z,56.03
2022-11-26T08:51:44.829Z,56.20
2022-11-26T08:54:12.107Z,57.63
2022-11-26T08:56:39.451Z,75.28
2022-11-26T08:59:06.388Z,75.22
2022-11-26T09:01:34.098Z,75.65
2022-11-26T09:04:03.131Z,61.03
2022-11-26T09:06:33.125Z,62.13
2022-11-26T09:09:13.451Z,59.50
2022-11-26T09:11:45.483Z,56.03
2022-11-26T09:14:14.717Z,45.33
2022-11-26T09:16:42.163Z,57.63
2022-11-26T09:19:11.332Z,52.47
2022-11-26T09:21:38.884Z,54.00
2022-11-26T09:24:06.088Z,50.15
2022-11-26T09:26:34.173Z,46.88
2022-11-26T09:29:01.790Z,58.50
2022-11-26T09:31:29.330Z,61.33
2022-11-26T09:33:58.514Z,67.57
2022-11-26T09:36:26.447Z,58.05
2022-11-26T09:38:58.267Z,70.22
2022-11-26T09:41:59.837Z,66.40
2022-11-26T09:45:24.353Z,63.03
2022-11-26T09:47:54.254Z,63.65
2022-11-26T09:50:33.287Z,62.15
2022-11-26T09:53:25.521Z,65.38
2022-11-26T09:55:54.688Z,63.10
2022-11-26T09:58:27.320Z,65.38
2022-11-26T10:00:59.945Z,58.58
2022-11-26T10:03:38.534Z,51.00
2022-11-26T10:06:24.173Z,61.45
2022-11-26T10:09:03.799Z,58.90
2022-11-26T10:11:52.350Z,60.47
2022-11-26T10:14:28.802Z,43.55
2022-11-26T10:17:22.942Z,51.05
2022-11-26T10:20:06.138Z,57.22
2022-11-26T10:22:43.701Z,50.25
2022-11-26T10:25:23.631Z,47.95
2022-11-26T10:27:52.096Z,50.30
2022-11-26T10:30:28.140Z,64.20
2022-11-26T10:32:58.306Z,48.90
2022-11-26T10:35:28.910Z,50.47
2022-11-26T10:37:57.761Z,60.38
2022-11-26T10:40:32.574Z,54.20
2022-11-26T10:43:08.649Z,59.50
2022-11-26T10:45:56.281Z,64.43
2022-11-26T10:48:23.246Z,52.20
2022-11-26T10:51:04.142Z,54.08
2022-11-26T10:53:58.147Z,53.38
2022-11-26T10:56:35.769Z,49.20
2022-11-26T10:59:05.920Z,43.10
2022-11-26T11:01:38.673Z,47.15
2022-11-26T11:04:36.890Z,58.80
2022-11-26T11:07:08.694Z,60.25
2022-11-26T11:09:38.650Z,54.58
2022-11-26T11:12:11.890Z,42.67
2022-11-26T11:14:43.031Z,45.45
2022-11-26T11:17:22.960Z,48.57
2022-11-26T11:19:49.967Z,47.17
2022-11-26T11:22:23.400Z,42.10
2022-11-26T11:27:44.178Z,55.85
2022-11-26T11:33:19.924Z,43.72
2022-11-26T11:36:06.384Z,49.17
2022-11-26T11:38:49.683Z,52.88
2022-11-26T11:41:34.298Z,52.88
2022-11-26T11:44:18.198Z,49.00
2022-11-26T11:47:04.890Z,60.47
2022-11-26T11:49:39.290Z,46.45
2022-11-26T11:52:11.797Z,46.50
2022-11-26T11:54:45.124Z,59.65
2022-11-26T11:57:21.315Z,61.28
2022-11-26T12:00:17.025Z,55.30
2022-11-26T12:02:49.640Z,62.03
2022-11-26T12:05:31.845Z,62.40
2022-11-26T12:08:23.137Z,55.17
2022-11-26T12:11:11.425Z,53.33
2022-11-26T12:13:54.728Z,51.30
2022-11-26T12:16:26.046Z,51.30
2022-11-26T12:19:12.222Z,61.47
2022-11-26T12:21:56.773Z,61.80
2022-11-26T12:24:46.493Z,55.33
2022-11-26T12:27:40.305Z,44.13
2022-11-26T12:32:53.213Z,53.05
2022-11-26T12:35:30.746Z,62.20
2022-11-26T12:38:13.078Z,57.58
2022-11-26T12:41:34.059Z,54.28
2022-11-26T12:44:46.148Z,51.05
2022-11-26T12:47:30.433Z,63.92
2022-11-26T12:50:29.703Z,53.63
2022-11-26T12:53:18.661Z,56.95
2022-11-26T12:55:48.942Z,53.65
2022-11-26T12:58:38.454Z,60.55
2022-11-26T13:01:05.751Z,59.80
2022-11-26T13:03:33.705Z,51.03
2022-11-26T13:06:14.368Z,57.97
2022-11-26T13:09:16.713Z,50.60
2022-11-26T13:12:10.412Z,54.42
2022-11-26T13:14:46.873Z,57.55
2022-11-26T13:17:17.126Z,50.67
2022-11-26T13:20:14.179Z,47.70
2022-11-26T13:23:13.845Z,49.20
2022-11-26T13:26:11.600Z,56.00
2022-11-26T13:28:39.022Z,48.95
2022-11-26T13:31:43.905Z,51.67
2022-11-26T13:34:29.947Z,46.45
2022-11-26T13:37:32.573Z,56.90
2022-11-26T13:40:08.986Z,49.80
2022-11-26T13:42:59.698Z,53.17
2022-11-26T13:45:50.946Z,70.13
2022-11-26T13:48:51.603Z,58.55
2022-11-26T13:51:39.186Z,61.33
2022-11-26T13:54:46.256Z,48.30
2022-11-26T13:57:23.150Z,50.78
2022-11-26T13:59:59.869Z,54.08
2022-11-26T14:02:33.098Z,41.70
2022-11-26T14:07:35.851Z,53.88
2022-11-26T14:10:05.916Z,54.65
2022-11-26T14:13:10.055Z,90.30
2022-11-26T14:18:13.425Z,66.95
2022-11-26T14:21:01.255Z,56.53
2022-11-26T14:23:47.219Z,65.80
2022-11-26T14:26:28.430Z,62.53
2022-11-26T14:29:07.606Z,60.22
2022-11-26T14:31:55.718Z,74.18
2022-11-26T14:34:40.827Z,58.70
2022-11-26T14:37:17.098Z,52.28
2022-11-26T14:39:44.472Z,57.47
2022-11-26T14:42:18.376Z,51.92
2022-11-26T14:44:45.843Z,52.70
2022-11-26T14:47:21.888Z,44.45
2022-11-26T14:49:57.683Z,48.80
2022-11-26T14:52:44.619Z,57.13
2022-11-26T14:55:25.398Z,55.58
2022-11-26T14:58:09.713Z,65.15
2022-11-26T15:00:37.480Z,72.82
2022-11-26T15:03:04.690Z,74.43
2022-11-26T15:05:34.166Z,59.15
2022-11-26T15:08:23.964Z,60.28
2022-11-26T15:11:01.754Z,51.88
2022-11-26T15:13:38.070Z,60.00
2022-11-26T15:16:31.529Z,67.53
2022-11-26T15:18:59.619Z,65.35
2022-11-26T15:21:28.095Z,56.30
2022-11-26T15:23:58.566Z,55.20
2022-11-26T15:26:32.337Z,58.35
2022-11-26T15:28:59.540Z,58.78
2022-11-26T15:31:40.704Z,64.55
2022-11-26T15:34:12.195Z,66.65
2022-11-26T15:36:39.432Z,56.20
2022-11-26T15:39:08.374Z,54.30
2022-11-26T15:41:42.380Z,66.30
2022-11-26T15:44:25.362Z,62.60
2022-11-26T15:46:55.650Z,63.03
2022-11-26T15:49:33.750Z,55.53
2022-11-26T15:52:11.407Z,48.03
2022-11-26T15:55:10.903Z,54.63
2022-11-26T15:57:33.315Z,57.35
2022-11-26T16:00:19.874Z,54.97
2022-11-26T16:02:47.601Z,58.97
2022-11-26T16:05:23.857Z,75.85
2022-11-26T16:08:00.295Z,68.90
2022-11-26T16:10:31.499Z,73.78
2022-11-26T16:13:11.786Z,55.38
2022-11-26T16:15:51.397Z,56.13
2022-11-26T16:18:22.610Z,55.13
2022-11-26T16:20:49.663Z,57.80
2022-11-26T16:23:29.472Z,68.85
2022-11-26T16:26:13.174Z,60.38
2022-11-26T16:28:41.203Z,67.47
2022-11-26T16:31:08.465Z,76.03
2022-11-26T16:33:35.807Z,73.78
2022-11-26T16:36:02.869Z,69.32
2022-11-26T16:38:30.135Z,79.85
2022-11-26T16:40:57.029Z,85.15
2022-11-26T16:43:24.295Z,94.97
2022-11-26T16:45:54.485Z,106.90
2022-11-26T16:48:27.262Z,84.47
2022-11-26T16:50:55.923Z,78.00
2022-11-26T16:53:23.729Z,71.63
2022-11-26T16:55:52.372Z,73.38
2022-11-26T16:58:28.388Z,60.72
2022-11-26T17:00:56.087Z,71.40
2022-11-26T17:03:24.652Z,68.05
2022-11-26T17:05:55.031Z,65.57
2022-11-26T17:08:22.543Z,63.22
2022-11-26T17:10:50.964Z,74.68
2022-11-26T17:13:18.356Z,73.53
2022-11-26T17:15:45.588Z,64.38
2022-11-26T17:18:25.825Z,67.40
2022-11-26T17:20:54.216Z,76.80
2022-11-26T17:23:22.157Z,73.03
2022-11-26T17:25:52.732Z,73.78
2022-11-26T17:28:21.330Z,81.25
2022-11-26T17:30:48.300Z,71.80
2022-11-26T17:33:16.333Z,80.35
2022-11-26T17:35:43.358Z,82.53
2022-11-26T17:38:18.262Z,94.72
2022-11-26T17:40:46.377Z,88.68
2022-11-26T17:43:14.238Z,74.90
2022-11-26T17:45:41.701Z,76.88
2022-11-26T17:48:13.645Z,67.32
2022-11-26T17:50:41.426Z,77.65
2022-11-26T17:53:08.962Z,84.78
2022-11-26T17:55:35.933Z,89.13
2022-11-26T17:58:03.091Z,85.18
2022-11-26T18:00:30.270Z,87.90
2022-11-26T18:02:58.539Z,82.22
2022-11-26T18:05:26.181Z,78.85
2022-11-26T18:07:53.459Z,74.80
2022-11-26T18:10:22.374Z,77.60
2022-11-26T18:12:53.360Z,76.07
2022-11-26T18:15:23.549Z,79.85
2022-11-26T18:17:52.999Z,75.47
2022-11-26T18:20:22.568Z,73.63
2022-11-26T18:22:52.014Z,72.68
2022-11-26T18:25:18.915Z,75.35
2022-11-26T18:27:46.357Z,88.32
2022-11-26T18:30:13.551Z,86.70
2022-11-26T18:32:40.831Z,98.00
2022-11-26T18:35:08.631Z,72.90
2022-11-26T18:37:38.108Z,86.28
2022-11-26T18:40:06.892Z,89.97
2022-11-26T18:42:38.157Z,97.53
2022-11-26T18:45:11.775Z,98.35
2022-11-26T18:47:39.349Z,79.25
2022-11-26T18:50:06.907Z,86.32
2022-11-26T18:52:34.106Z,79.75
2022-11-26T18:55:04.656Z,82.53
2022-11-26T18:57:32.505Z,81.63
2022-11-26T18:59:59.356Z,86.78
2022-11-26T19:02:27.704Z,112.45
2022-11-26T19:04:54.673Z,97.70
2022-11-26T19:07:22.138Z,87.63
2022-11-26T19:09:49.185Z,65.75
2022-11-26T19:12:16.441Z,67.97
2022-11-26T19:14:43.332Z,72.93
2022-11-26T19:17:10.691Z,74.72
2022-11-26T19:19:38.435Z,81.05
2022-11-26T19:22:05.801Z,66.53
2022-11-26T19:24:32.685Z,78.90
2022-11-26T19:26:59.911Z,77.18
2022-11-26T19:29:26.782Z,72.70
2022-11-26T19:31:53.962Z,78.28
2022-11-26T19:34:21.163Z,74.13
2022-11-26T19:36:49.408Z,70.80
2022-11-26T19:39:16.589Z,87.25
2022-11-26T19:41:44.400Z,80.70
2022-11-26T19:44:12.235Z,79.47
2022-11-26T19:46:41.368Z,86.13
2022-11-26T19:49:11.995Z,83.65
2022-11-26T19:51:39.410Z,67.10
2022-11-26T19:54:06.421Z,65.13
2022-11-26T19:56:34.457Z,70.18
2022-11-26T19:59:02.329Z,74.50
2022-11-26T20:01:31.462Z,74.35
2022-11-26T20:04:07.997Z,70.03
2022-11-26T20:06:36.249Z,73.13
2022-11-26T20:09:05.665Z,76.53
2022-11-26T20:11:35.415Z,69.60
2022-11-26T20:14:03.393Z,67.28
2022-11-26T20:16:32.241Z,76.25
2022-11-26T20:18:59.570Z,62.92
2022-11-26T20:21:28.866Z,64.15
2022-11-26T20:23:59.172Z,57.75
2022-11-26T20:26:35.269Z,61.80
2022-11-26T20:29:06.041Z,64.10
2022-11-26T20:31:34.822Z,68.45
2022-11-26T20:34:05.201Z,64.40
2022-11-26T20:36:32.416Z,75.25
2022-11-26T20:39:01.138Z,78.13
2022-11-26T20:41:30.439Z,63.15
2022-11-26T20:43:59.325Z,60.42
2022-11-26T20:46:28.726Z,67.53
2022-11-26T20:48:56.490Z,75.30
2022-11-26T20:51:25.011Z,92.82
2022-11-26T20:53:53.027Z,88.93
2022-11-26T20:56:21.845Z,75.25
2022-11-26T20:58:50.027Z,90.13
2022-11-26T21:01:20.202Z,98.78
2022-11-26T21:03:47.757Z,77.55
2022-11-26T21:06:16.860Z,64.32
2022-11-26T21:08:44.672Z,72.95
2022-11-26T21:11:13.186Z,69.97
2022-11-26T21:13:40.652Z,52.58
2022-11-26T21:16:11.811Z,78.07
2022-11-26T21:18:38.752Z,70.18
2022-11-26T21:21:17.028Z,86.68
2022-11-26T21:23:44.764Z,75.22
2022-11-26T21:26:16.742Z,84.68
2022-11-26T21:28:43.806Z,96.93
2022-11-26T21:31:17.131Z,97.80
2022-11-26T21:33:45.918Z,97.00
2022-11-26T21:36:15.693Z,103.97
2022-11-26T21:38:43.395Z,96.53
2022-11-26T21:41:12.686Z,98.68
2022-11-26T21:43:40.444Z,97.85
2022-11-26T21:46:10.249Z,90.97
2022-11-26T21:48:37.281Z,94.13
2022-11-26T21:51:13.239Z,109.75
2022-11-26T21:53:40.439Z,103.93
2022-11-26T21:56:09.638Z,95.35
2022-11-26T21:58:37.169Z,89.00
2022-11-26T22:01:19.049Z,90.65
2022-11-26T22:03:48.457Z,99.47
2022-11-26T22:06:16.474Z,103.50
2022-11-26T22:08:43.699Z,111.80
2022-11-26T22:11:13.148Z,102.68
2022-11-26T22:13:41.128Z,104.85
2022-11-26T22:16:10.181Z,109.80
2022-11-26T22:18:41.528Z,96.25
2022-11-26T22:21:21.803Z,97.75
2022-11-26T22:23:49.481Z,107.43
2022-11-26T22:26:17.120Z,101.30
2022-11-26T22:28:44.358Z,106.20
2022-11-26T22:31:27.028Z,107.30
2022-11-26T22:34:00.405Z,108.45
2022-11-26T22:36:28.602Z,90.75
2022-11-26T22:38:56.035Z,109.15
2022-11-26T22:41:23.660Z,107.68
2022-11-26T22:43:50.700Z,115.03
2022-11-26T22:46:21.306Z,103.05
2022-11-26T22:48:54.382Z,101.88
2022-11-26T22:51:22.002Z,106.75
2022-11-26T22:53:53.263Z,112.45
2022-11-26T22:56:21.451Z,104.80
2022-11-26T22:58:48.698Z,98.10
2022-11-26T23:01:23.173Z,87.57
2022-11-26T23:03:50.898Z,107.18
2022-11-26T23:06:19.378Z,93.15
2022-11-26T23:08:46.613Z,93.30
2022-11-26T23:11:17.128Z,83.07
2022-11-26T23:13:46.003Z,99.72
2022-11-26T23:16:14.712Z,104.63
2022-11-26T23:18:44.460Z,86.43
2022-11-26T23:21:21.585Z,91.38
2022-11-26T23:23:49.583Z,91.20
2022-11-26T23:26:27.133Z,85.82
2022-11-26T23:28:58.262Z,82.13
2022-11-26T23:31:28.374Z,99.40
2022-11-26T23:33:55.449Z,84.03
2022-11-26T23:36:23.110Z,91.32
2022-11-26T23:38:50.168Z,82.50
2022-11-26T23:41:17.491Z,98.20
2022-11-26T23:43:44.910Z,87.68
2022-11-26T23:46:21.326Z,75.80
2022-11-26T23:48:48.993Z,86.00
2022-11-26T23:51:18.986Z,84.07
2022-11-26T23:53:47.124Z,100.47
2022-11-26T23:56:16.948Z,84.53
2022-11-26T23:58:43.912Z,77.35
